Terminal Aerodrome Forecast
Issued by NWS

Home | Current Version | Previous Version | Text Only | Print | Product List | Glossary Off
Versions: 1 2 3 4 5 6 7 8 9 10 11 12 13 14 15 16 17 18 19 20 21 22 23

000
FTUS43 KICT 031420 AAB
TAFCNU
TAF AMD
KCNU 031420Z 0314/0412 VRB04KT 6SM BR BKN005 OVC015
     FM031800 04007KT P6SM SCT007 OVC015
     FM032000 03013KT P6SM OVC025
     FM040100 07007KT P6SM OVC050=

USA.gov is the U.S. government's official web portal to all federal, state and local government web resources and services.